sensor_id;sensor_type;location;lat;lon;timestamp;pressure;altitude;pressure_sealevel;temperature;humidity
51299;BME280;37382;45.192;9.790;2023-05-23T00:02:05;100919.59;;;20.50;100.00
51299;BME280;37382;45.192;9.790;2023-05-23T00:04:35;100920.34;;;20.45;100.00
51299;BME280;37382;45.192;9.790;2023-05-23T00:07:03;100922.66;;;20.31;100.00
51299;BME280;37382;45.192;9.790;2023-05-23T00:09:31;100919.28;;;20.24;100.00
51299;BME280;37382;45.192;9.790;2023-05-23T00:11:59;100915.97;;;20.49;100.00
51299;BME280;37382;45.192;9.790;2023-05-23T00:14:27;100923.91;;;20.68;100.00
51299;BME280;37382;45.192;9.790;2023-05-23T00:16:57;100922.91;;;20.74;100.00
51299;BME280;37382;45.192;9.790;2023-05-23T00:19:26;100918.56;;;20.83;100.00
51299;BME280;37382;45.192;9.790;2023-05-23T00:21:53;100921.47;;;20.71;100.00
51299;BME280;37382;45.192;9.790;2023-05-23T00:24:24;100920.59;;;20.66;100.00
51299;BME280;37382;45.192;9.790;2023-05-23T00:26:53;100915.16;;;20.76;100.00
51299;BME280;37382;45.192;9.790;2023-05-23T00:29:21;100915.09;;;20.43;100.00
51299;BME280;37382;45.192;9.790;2023-05-23T00:31:49;100920.31;;;20.18;100.00
51299;BME280;37382;45.192;9.790;2023-05-23T00:34:17;100918.13;;;19.59;100.00
51299;BME280;37382;45.192;9.790;2023-05-23T00:36:45;100917.22;;;19.36;100.00
51299;BME280;37382;45.192;9.790;2023-05-23T00:39:16;100912.63;;;19.42;100.00
51299;BME280;37382;45.192;9.790;2023-05-23T00:41:49;100920.66;;;19.09;100.00
51299;BME280;37382;45.192;9.790;2023-05-23T00:44:19;100915.72;;;19.45;100.00
51299;BME280;37382;45.192;9.790;2023-05-23T00:46:52;100920.56;;;19.38;100.00
51299;BME280;37382;45.192;9.790;2023-05-23T00:49:22;100920.06;;;19.07;100.00
51299;BME280;37382;45.192;9.790;2023-05-23T00:51:50;100924.91;;;19.17;100.00
51299;BME280;37382;45.192;9.790;2023-05-23T00:54:27;100913.22;;;18.93;100.00
51299;BME280;37382;45.192;9.790;2023-05-23T00:56:58;100917.31;;;19.07;100.00
51299;BME280;37382;45.192;9.790;2023-05-23T00:59:26;100922.00;;;19.24;100.00
51299;BME280;37382;45.192;9.790;2023-05-23T01:01:55;100912.97;;;19.11;100.00
51299;BME280;37382;45.192;9.790;2023-05-23T01:04:23;100911.47;;;19.04;100.00
51299;BME280;37382;45.192;9.790;2023-05-23T01:06:54;100909.28;;;19.23;100.00
51299;BME280;37382;45.192;9.790;2023-05-23T01:09:24;100910.53;;;19.32;100.00
51299;BME280;37382;45.192;9.790;2023-05-23T01:12:05;100906.56;;;19.79;100.00
51299;BME280;37382;45.192;9.790;2023-05-23T01:14:59;100902.00;;;19.89;100.00
51299;BME280;37382;45.192;9.790;2023-05-23T01:17:42;100900.97;;;19.96;100.00
51299;BME280;37382;45.192;9.790;2023-05-23T01:20:16;100894.03;;;19.93;100.00
51299;BME280;37382;45.192;9.790;2023-05-23T01:28:32;100907.41;;;19.62;100.00
51299;BME280;37382;45.192;9.790;2023-05-23T01:31:05;100897.47;;;19.44;100.00
51299;BME280;37382;45.192;9.790;2023-05-23T01:33:37;100906.78;;;19.38;100.00
51299;BME280;37382;45.192;9.790;2023-05-23T01:36:06;100906.63;;;19.11;100.00
51299;BME280;37382;45.192;9.790;2023-05-23T01:38:35;100906.13;;;18.97;100.00
51299;BME280;37382;45.192;9.790;2023-05-23T01:41:02;100906.28;;;18.90;100.00
51299;BME280;37382;45.192;9.790;2023-05-23T01:43:31;100903.56;;;18.78;100.00
51299;BME280;37382;45.192;9.790;2023-05-23T01:45:59;100909.31;;;19.06;100.00
51299;BME280;37382;45.192;9.790;2023-05-23T01:48:28;100904.09;;;19.43;100.00
51299;BME280;37382;45.192;9.790;2023-05-23T01:50:57;100904.34;;;19.42;100.00
51299;BME280;37382;45.192;9.790;2023-05-23T01:53:25;100908.78;;;19.43;100.00
51299;BME280;37382;45.192;9.790;2023-05-23T01:55:53;100908.13;;;19.35;100.00
51299;BME280;37382;45.192;9.790;2023-05-23T01:58:22;100906.88;;;19.43;100.00
51299;BME280;37382;45.192;9.790;2023-05-23T02:00:50;100912.69;;;19.47;100.00
51299;BME280;37382;45.192;9.790;2023-05-23T02:03:18;100909.19;;;19.51;100.00
51299;BME280;37382;45.192;9.790;2023-05-23T02:05:45;100913.53;;;19.47;100.00
51299;BME280;37382;45.192;9.790;2023-05-23T02:08:13;100908.94;;;19.36;100.00
51299;BME280;37382;45.192;9.790;2023-05-23T02:10:41;100904.47;;;18.96;100.00
51299;BME280;37382;45.192;9.790;2023-05-23T02:13:08;100900.44;;;18.87;100.00
51299;BME280;37382;45.192;9.790;2023-05-23T02:15:36;100897.69;;;18.58;100.00
51299;BME280;37382;45.192;9.790;2023-05-23T02:18:04;100907.38;;;18.60;100.00
51299;BME280;37382;45.192;9.790;2023-05-23T02:20:32;100899.72;;;18.79;100.00
51299;BME280;37382;45.192;9.790;2023-05-23T02:23:00;100907.78;;;18.98;100.00
51299;BME280;37382;45.192;9.790;2023-05-23T02:25:29;100905.19;;;18.45;100.00
51299;BME280;37382;45.192;9.790;2023-05-23T02:27:56;100911.28;;;18.07;100.00
51299;BME280;37382;45.192;9.790;2023-05-23T02:30:24;100910.16;;;17.91;100.00
51299;BME280;37382;45.192;9.790;2023-05-23T02:32:51;100914.75;;;18.14;100.00
51299;BME280;37382;45.192;9.790;2023-05-23T02:35:19;100915.72;;;17.84;100.00
51299;BME280;37382;45.192;9.790;2023-05-23T02:37:47;100908.78;;;18.05;100.00
51299;BME280;37382;45.192;9.790;2023-05-23T02:40:15;100907.16;;;17.92;100.00
51299;BME280;37382;45.192;9.790;2023-05-23T02:42:42;100906.94;;;18.23;100.00
51299;BME280;37382;45.192;9.790;2023-05-23T02:45:10;100910.72;;;18.05;100.00
51299;BME280;37382;45.192;9.790;2023-05-23T02:47:38;100911.91;;;18.09;100.00
51299;BME280;37382;45.192;9.790;2023-05-23T02:50:08;100917.97;;;18.23;100.00
51299;BME280;37382;45.192;9.790;2023-05-23T02:52:36;100915.31;;;18.28;100.00
51299;BME280;37382;45.192;9.790;2023-05-23T02:55:04;100914.81;;;18.31;100.00
51299;BME280;37382;45.192;9.790;2023-05-23T02:57:38;100914.09;;;18.24;100.00
51299;BME280;37382;45.192;9.790;2023-05-23T03:00:06;100916.03;;;18.23;100.00
51299;BME280;37382;45.192;9.790;2023-05-23T03:02:35;100915.56;;;18.26;100.00
51299;BME280;37382;45.192;9.790;2023-05-23T03:05:04;100920.31;;;17.78;100.00
51299;BME280;37382;45.192;9.790;2023-05-23T03:07:32;100916.09;;;17.88;100.00
51299;BME280;37382;45.192;9.790;2023-05-23T03:10:00;100921.53;;;17.59;100.00
51299;BME280;37382;45.192;9.790;2023-05-23T03:12:28;100914.34;;;17.70;100.00
51299;BME280;37382;45.192;9.790;2023-05-23T03:14:55;100907.63;;;17.54;100.00
51299;BME280;37382;45.192;9.790;2023-05-23T03:17:26;100923.78;;;17.38;100.00
51299;BME280;37382;45.192;9.790;2023-05-23T03:19:56;100910.50;;;17.35;100.00
51299;BME280;37382;45.192;9.790;2023-05-23T03:22:24;100925.25;;;17.53;100.00
51299;BME280;37382;45.192;9.790;2023-05-23T03:24:51;100915.53;;;17.50;100.00
51299;BME280;37382;45.192;9.790;2023-05-23T03:27:19;100921.41;;;17.30;100.00
51299;BME280;37382;45.192;9.790;2023-05-23T03:29:46;100919.97;;;17.51;100.00
51299;BME280;37382;45.192;9.790;2023-05-23T03:32:14;100912.06;;;17.55;100.00
51299;BME280;37382;45.192;9.790;2023-05-23T03:34:42;100910.03;;;17.62;100.00
51299;BME280;37382;45.192;9.790;2023-05-23T03:37:10;100924.41;;;17.40;100.00
51299;BME280;37382;45.192;9.790;2023-05-23T03:39:38;100922.63;;;17.34;100.00
51299;BME280;37382;45.192;9.790;2023-05-23T03:42:06;100923.78;;;17.50;100.00
51299;BME280;37382;45.192;9.790;2023-05-23T03:44:34;100926.28;;;17.40;100.00
51299;BME280;37382;45.192;9.790;2023-05-23T03:47:04;100919.25;;;17.44;100.00
51299;BME280;37382;45.192;9.790;2023-05-23T03:49:34;100917.44;;;17.61;100.00
51299;BME280;37382;45.192;9.790;2023-05-23T03:52:01;100919.00;;;17.46;100.00
51299;BME280;37382;45.192;9.790;2023-05-23T03:54:29;100920.66;;;17.58;100.00
51299;BME280;37382;45.192;9.790;2023-05-23T03:56:57;100929.53;;;17.60;100.00
51299;BME280;37382;45.192;9.790;2023-05-23T03:59:24;100920.66;;;17.82;100.00
51299;BME280;37382;45.192;9.790;2023-05-23T04:01:52;100924.38;;;17.88;100.00
51299;BME280;37382;45.192;9.790;2023-05-23T04:04:20;100933.84;;;18.33;100.00
51299;BME280;37382;45.192;9.790;2023-05-23T04:06:49;100925.97;;;18.24;100.00
51299;BME280;37382;45.192;9.790;2023-05-23T04:09:18;100931.03;;;18.16;100.00
51299;BME280;37382;45.192;9.790;2023-05-23T04:11:47;100925.22;;;18.00;100.00
51299;BME280;37382;45.192;9.790;2023-05-23T04:14:15;100928.09;;;17.70;100.00
51299;BME280;37382;45.192;9.790;2023-05-23T04:16:44;100941.03;;;17.57;100.00
51299;BME280;37382;45.192;9.790;2023-05-23T04:19:13;100937.91;;;17.66;100.00
51299;BME280;37382;45.192;9.790;2023-05-23T04:21:40;100938.97;;;17.76;100.00
51299;BME280;37382;45.192;9.790;2023-05-23T04:24:10;100939.78;;;18.01;100.00
51299;BME280;37382;45.192;9.790;2023-05-23T04:26:39;100931.88;;;18.04;100.00
51299;BME280;37382;45.192;9.790;2023-05-23T04:29:06;100942.44;;;17.84;100.00
51299;BME280;37382;45.192;9.790;2023-05-23T04:31:33;100938.38;;;17.86;100.00
51299;BME280;37382;45.192;9.790;2023-05-23T04:34:01;100939.22;;;17.99;100.00
51299;BME280;37382;45.192;9.790;2023-05-23T04:36:34;100940.00;;;18.23;100.00
51299;BME280;37382;45.192;9.790;2023-05-23T04:39:04;100938.50;;;18.44;100.00
51299;BME280;37382;45.192;9.790;2023-05-23T04:41:38;100942.16;;;18.49;100.00
51299;BME280;37382;45.192;9.790;2023-05-23T04:44:19;100945.94;;;18.31;100.00
51299;BME280;37382;45.192;9.790;2023-05-23T04:47:02;100941.28;;;18.32;100.00
51299;BME280;37382;45.192;9.790;2023-05-23T04:49:42;100939.59;;;18.60;100.00
51299;BME280;37382;45.192;9.790;2023-05-23T04:52:10;100945.13;;;18.60;100.00
51299;BME280;37382;45.192;9.790;2023-05-23T04:54:41;100944.06;;;18.90;100.00
51299;BME280;37382;45.192;9.790;2023-05-23T04:57:11;100947.56;;;19.02;100.00
51299;BME280;37382;45.192;9.790;2023-05-23T04:59:39;100944.56;;;19.04;100.00
51299;BME280;37382;45.192;9.790;2023-05-23T05:02:06;100943.63;;;18.69;100.00
51299;BME280;37382;45.192;9.790;2023-05-23T05:04:35;100943.66;;;18.28;100.00
51299;BME280;37382;45.192;9.790;2023-05-23T05:07:05;100941.34;;;17.96;100.00
51299;BME280;37382;45.192;9.790;2023-05-23T05:09:33;100945.94;;;17.91;100.00
51299;BME280;37382;45.192;9.790;2023-05-23T05:12:01;100947.00;;;18.02;100.00
51299;BME280;37382;45.192;9.790;2023-05-23T05:14:29;100945.88;;;18.03;100.00
51299;BME280;37382;45.192;9.790;2023-05-23T05:16:57;100937.47;;;18.21;100.00
51299;BME280;37382;45.192;9.790;2023-05-23T05:19:31;100940.06;;;18.40;100.00
51299;BME280;37382;45.192;9.790;2023-05-23T05:22:00;100946.09;;;18.25;100.00
51299;BME280;37382;45.192;9.790;2023-05-23T05:24:28;100940.13;;;18.04;100.00
51299;BME280;37382;45.192;9.790;2023-05-23T05:26:56;100944.69;;;18.10;100.00
51299;BME280;37382;45.192;9.790;2023-05-23T05:29:24;100948.41;;;18.04;100.00
51299;BME280;37382;45.192;9.790;2023-05-23T05:31:52;100945.78;;;18.09;100.00
51299;BME280;37382;45.192;9.790;2023-05-23T05:34:20;100948.63;;;18.03;100.00
51299;BME280;37382;45.192;9.790;2023-05-23T05:36:49;100952.47;;;18.13;100.00
51299;BME280;37382;45.192;9.790;2023-05-23T05:39:17;100950.38;;;18.33;100.00
51299;BME280;37382;45.192;9.790;2023-05-23T05:41:45;100943.00;;;18.21;100.00
51299;BME280;37382;45.192;9.790;2023-05-23T05:44:13;100943.19;;;18.31;100.00
51299;BME280;37382;45.192;9.790;2023-05-23T05:46:41;100947.63;;;18.33;100.00
51299;BME280;37382;45.192;9.790;2023-05-23T05:49:09;100953.22;;;18.38;100.00
51299;BME280;37382;45.192;9.790;2023-05-23T05:51:39;100944.13;;;18.37;100.00
51299;BME280;37382;45.192;9.790;2023-05-23T05:54:07;100954.56;;;18.35;100.00
51299;BME280;37382;45.192;9.790;2023-05-23T05:56:34;100951.44;;;18.31;100.00
51299;BME280;37382;45.192;9.790;2023-05-23T05:59:03;100949.59;;;18.49;100.00
51299;BME280;37382;45.192;9.790;2023-05-23T06:01:31;100950.78;;;18.53;100.00
51299;BME280;37382;45.192;9.790;2023-05-23T06:04:01;100940.06;;;18.69;100.00
51299;BME280;37382;45.192;9.790;2023-05-23T06:06:30;100955.41;;;18.64;100.00
51299;BME280;37382;45.192;9.790;2023-05-23T06:08:58;100961.09;;;18.75;100.00
51299;BME280;37382;45.192;9.790;2023-05-23T06:11:26;100955.34;;;19.05;100.00
51299;BME280;37382;45.192;9.790;2023-05-23T06:13:54;100958.25;;;18.98;100.00
51299;BME280;37382;45.192;9.790;2023-05-23T06:16:22;100955.16;;;18.95;100.00
51299;BME280;37382;45.192;9.790;2023-05-23T06:18:50;100957.38;;;18.81;100.00
51299;BME280;37382;45.192;9.790;2023-05-23T06:21:19;100958.75;;;19.12;100.00
51299;BME280;37382;45.192;9.790;2023-05-23T06:23:49;100953.59;;;18.99;100.00
51299;BME280;37382;45.192;9.790;2023-05-23T06:26:17;100959.69;;;19.18;100.00
51299;BME280;37382;45.192;9.790;2023-05-23T06:28:44;100961.25;;;18.97;100.00
51299;BME280;37382;45.192;9.790;2023-05-23T06:31:12;100957.50;;;19.03;100.00
51299;BME280;37382;45.192;9.790;2023-05-23T06:33:40;100961.25;;;19.14;100.00
51299;BME280;37382;45.192;9.790;2023-05-23T06:36:10;100959.63;;;19.30;100.00
51299;BME280;37382;45.192;9.790;2023-05-23T06:38:38;100958.78;;;19.46;100.00
51299;BME280;37382;45.192;9.790;2023-05-23T06:41:05;100960.78;;;19.51;100.00
51299;BME280;37382;45.192;9.790;2023-05-23T06:43:35;100967.47;;;19.38;100.00
51299;BME280;37382;45.192;9.790;2023-05-23T06:46:12;100964.13;;;19.53;100.00
51299;BME280;37382;45.192;9.790;2023-05-23T06:48:41;100957.59;;;19.42;100.00
51299;BME280;37382;45.192;9.790;2023-05-23T06:51:08;100963.44;;;19.63;100.00
51299;BME280;37382;45.192;9.790;2023-05-23T06:53:37;100960.09;;;19.78;100.00
51299;BME280;37382;45.192;9.790;2023-05-23T06:56:05;100959.63;;;20.03;100.00
51299;BME280;37382;45.192;9.790;2023-05-23T06:58:39;100960.91;;;19.95;100.00
51299;BME280;37382;45.192;9.790;2023-05-23T07:01:07;100958.13;;;19.95;100.00
51299;BME280;37382;45.192;9.790;2023-05-23T07:03:42;100958.03;;;20.07;100.00
51299;BME280;37382;45.192;9.790;2023-05-23T07:06:12;100951.72;;;20.34;100.00
51299;BME280;37382;45.192;9.790;2023-05-23T07:08:40;100952.78;;;20.55;100.00
51299;BME280;37382;45.192;9.790;2023-05-23T07:11:09;100949.22;;;20.32;100.00
51299;BME280;37382;45.192;9.790;2023-05-23T07:13:43;100936.84;;;20.40;100.00
51299;BME280;37382;45.192;9.790;2023-05-23T07:16:18;100942.50;;;20.50;100.00
51299;BME280;37382;45.192;9.790;2023-05-23T07:18:56;100946.53;;;20.65;100.00
51299;BME280;37382;45.192;9.790;2023-05-23T07:21:24;100942.50;;;20.72;100.00
51299;BME280;37382;45.192;9.790;2023-05-23T07:23:51;100944.38;;;20.67;100.00
51299;BME280;37382;45.192;9.790;2023-05-23T07:26:20;100938.00;;;20.66;100.00
51299;BME280;37382;45.192;9.790;2023-05-23T07:28:53;100936.53;;;20.86;100.00
51299;BME280;37382;45.192;9.790;2023-05-23T07:31:21;100942.69;;;20.93;100.00
51299;BME280;37382;45.192;9.790;2023-05-23T07:33:52;100948.28;;;21.30;100.00
51299;BME280;37382;45.192;9.790;2023-05-23T07:36:29;100944.09;;;21.28;100.00
51299;BME280;37382;45.192;9.790;2023-05-23T07:39:00;100949.84;;;20.89;100.00
51299;BME280;37382;45.192;9.790;2023-05-23T07:41:28;100946.50;;;21.19;100.00
51299;BME280;37382;45.192;9.790;2023-05-23T07:43:56;100945.91;;;21.44;100.00
51299;BME280;37382;45.192;9.790;2023-05-23T07:46:23;100944.50;;;21.09;100.00
51299;BME280;37382;45.192;9.790;2023-05-23T07:48:51;100945.66;;;21.13;100.00
51299;BME280;37382;45.192;9.790;2023-05-23T07:51:19;100953.91;;;21.08;100.00
51299;BME280;37382;45.192;9.790;2023-05-23T07:53:49;100944.53;;;21.14;100.00
51299;BME280;37382;45.192;9.790;2023-05-23T07:56:19;100951.09;;;21.41;100.00
51299;BME280;37382;45.192;9.790;2023-05-23T07:58:47;100943.13;;;21.44;100.00
51299;BME280;37382;45.192;9.790;2023-05-23T08:01:15;100939.19;;;21.35;100.00
51299;BME280;37382;45.192;9.790;2023-05-23T08:03:56;100939.22;;;21.40;100.00
51299;BME280;37382;45.192;9.790;2023-05-23T08:06:31;100940.47;;;21.55;100.00
51299;BME280;37382;45.192;9.790;2023-05-23T08:09:04;100938.06;;;21.68;100.00
51299;BME280;37382;45.192;9.790;2023-05-23T08:11:54;100938.63;;;21.76;100.00
51299;BME280;37382;45.192;9.790;2023-05-23T08:14:23;100933.00;;;22.13;100.00
51299;BME280;37382;45.192;9.790;2023-05-23T08:17:18;100929.13;;;22.09;100.00
51299;BME280;37382;45.192;9.790;2023-05-23T08:19:46;100926.66;;;22.13;100.00
51299;BME280;37382;45.192;9.790;2023-05-23T08:22:14;100926.88;;;22.06;100.00
51299;BME280;37382;45.192;9.790;2023-05-23T08:24:42;100938.28;;;22.10;100.00
51299;BME280;37382;45.192;9.790;2023-05-23T08:27:10;100929.81;;;22.47;100.00
51299;BME280;37382;45.192;9.790;2023-05-23T08:29:38;100925.59;;;22.29;100.00
51299;BME280;37382;45.192;9.790;2023-05-23T08:32:06;100930.19;;;22.92;100.00
51299;BME280;37382;45.192;9.790;2023-05-23T08:34:34;100929.63;;;22.74;100.00
51299;BME280;37382;45.192;9.790;2023-05-23T08:37:03;100935.72;;;22.87;100.00
51299;BME280;37382;45.192;9.790;2023-05-23T08:39:31;100929.66;;;22.95;100.00
51299;BME280;37382;45.192;9.790;2023-05-23T08:42:18;100929.13;;;23.14;100.00
51299;BME280;37382;45.192;9.790;2023-05-23T08:44:47;100920.78;;;23.39;100.00
51299;BME280;37382;45.192;9.790;2023-05-23T08:47:18;100927.72;;;23.42;100.00
51299;BME280;37382;45.192;9.790;2023-05-23T08:49:58;100926.31;;;23.44;100.00
51299;BME280;37382;45.192;9.790;2023-05-23T08:52:28;100923.28;;;23.25;100.00
51299;BME280;37382;45.192;9.790;2023-05-23T08:55:00;100926.53;;;23.89;100.00
51299;BME280;37382;45.192;9.790;2023-05-23T08:57:30;100920.72;;;23.60;100.00
51299;BME280;37382;45.192;9.790;2023-05-23T09:00:11;100914.69;;;23.37;100.00
51299;BME280;37382;45.192;9.790;2023-05-23T09:02:42;100917.44;;;23.42;100.00
51299;BME280;37382;45.192;9.790;2023-05-23T09:05:25;100918.22;;;23.69;100.00
51299;BME280;37382;45.192;9.790;2023-05-23T09:07:53;100916.03;;;23.60;100.00
51299;BME280;37382;45.192;9.790;2023-05-23T09:10:22;100917.25;;;24.14;100.00
51299;BME280;37382;45.192;9.790;2023-05-23T09:12:50;100924.31;;;23.86;100.00
51299;BME280;37382;45.192;9.790;2023-05-23T09:15:18;100919.88;;;23.80;100.00
51299;BME280;37382;45.192;9.790;2023-05-23T09:17:45;100917.41;;;23.58;100.00
51299;BME280;37382;45.192;9.790;2023-05-23T09:20:14;100916.81;;;23.76;100.00
51299;BME280;37382;45.192;9.790;2023-05-23T09:22:50;100917.94;;;23.75;100.00
51299;BME280;37382;45.192;9.790;2023-05-23T09:25:18;100909.59;;;23.91;100.00
51299;BME280;37382;45.192;9.790;2023-05-23T09:27:46;100912.84;;;24.08;100.00
51299;BME280;37382;45.192;9.790;2023-05-23T09:30:16;100913.47;;;23.69;100.00
51299;BME280;37382;45.192;9.790;2023-05-23T09:32:59;100912.03;;;24.52;100.00
51299;BME280;37382;45.192;9.790;2023-05-23T09:35:32;100904.13;;;24.25;100.00
51299;BME280;37382;45.192;9.790;2023-05-23T09:37:59;100905.47;;;24.38;100.00
51299;BME280;37382;45.192;9.790;2023-05-23T09:40:30;100901.31;;;24.36;100.00
51299;BME280;37382;45.192;9.790;2023-05-23T09:43:04;100904.78;;;24.57;100.00
51299;BME280;37382;45.192;9.790;2023-05-23T09:45:33;100904.25;;;24.60;100.00
51299;BME280;37382;45.192;9.790;2023-05-23T09:48:02;100910.69;;;24.45;100.00
51299;BME280;37382;45.192;9.790;2023-05-23T09:50:32;100910.03;;;24.19;100.00
51299;BME280;37382;45.192;9.790;2023-05-23T09:53:01;100899.34;;;24.36;100.00
51299;BME280;37382;45.192;9.790;2023-05-23T09:55:29;100895.97;;;24.89;100.00
51299;BME280;37382;45.192;9.790;2023-05-23T09:57:58;100900.81;;;25.08;100.00
51299;BME280;37382;45.192;9.790;2023-05-23T10:00:26;100901.78;;;24.93;100.00
51299;BME280;37382;45.192;9.790;2023-05-23T10:03:09;100896.22;;;24.93;100.00
51299;BME280;37382;45.192;9.790;2023-05-23T10:05:49;100891.59;;;25.12;100.00
51299;BME280;37382;45.192;9.790;2023-05-23T10:08:26;100898.28;;;25.11;100.00
51299;BME280;37382;45.192;9.790;2023-05-23T10:13:27;100899.91;;;25.17;100.00
51299;BME280;37382;45.192;9.790;2023-05-23T10:16:05;100892.91;;;25.20;100.00
51299;BME280;37382;45.192;9.790;2023-05-23T10:18:42;100897.56;;;25.00;100.00
51299;BME280;37382;45.192;9.790;2023-05-23T10:21:15;100901.03;;;25.16;100.00
51299;BME280;37382;45.192;9.790;2023-05-23T10:23:45;100892.47;;;25.66;100.00
51299;BME280;37382;45.192;9.790;2023-05-23T10:26:14;100889.72;;;25.37;100.00
51299;BME280;37382;45.192;9.790;2023-05-23T10:28:44;100889.47;;;25.63;100.00
51299;BME280;37382;45.192;9.790;2023-05-23T10:31:14;100888.31;;;25.64;100.00
51299;BME280;37382;45.192;9.790;2023-05-23T10:33:48;100886.09;;;25.66;100.00
51299;BME280;37382;45.192;9.790;2023-05-23T10:36:28;100873.97;;;25.51;100.00
51299;BME280;37382;45.192;9.790;2023-05-23T10:39:03;100877.34;;;26.21;100.00
51299;BME280;37382;45.192;9.790;2023-05-23T10:41:58;100861.94;;;26.61;100.00
51299;BME280;37382;45.192;9.790;2023-05-23T10:44:30;100884.06;;;25.71;100.00
51299;BME280;37382;45.192;9.790;2023-05-23T10:46:58;100871.31;;;25.89;100.00
51299;BME280;37382;45.192;9.790;2023-05-23T10:49:44;100868.44;;;25.95;100.00
51299;BME280;37382;45.192;9.790;2023-05-23T10:52:15;100870.25;;;26.28;100.00
51299;BME280;37382;45.192;9.790;2023-05-23T10:54:47;100857.13;;;26.29;100.00
51299;BME280;37382;45.192;9.790;2023-05-23T10:57:17;100857.34;;;26.52;100.00
51299;BME280;37382;45.192;9.790;2023-05-23T10:59:46;100859.09;;;26.48;100.00
51299;BME280;37382;45.192;9.790;2023-05-23T11:02:25;100848.31;;;26.22;100.00
51299;BME280;37382;45.192;9.790;2023-05-23T11:05:19;100853.59;;;26.42;100.00
51299;BME280;37382;45.192;9.790;2023-05-23T11:08:11;100852.31;;;26.35;100.00
51299;BME280;37382;45.192;9.790;2023-05-23T11:11:00;100845.59;;;27.07;100.00
51299;BME280;37382;45.192;9.790;2023-05-23T11:14:06;100844.47;;;26.75;100.00
51299;BME280;37382;45.192;9.790;2023-05-23T11:16:40;100837.22;;;27.07;100.00
51299;BME280;37382;45.192;9.790;2023-05-23T11:21:46;100846.94;;;27.56;92.92
51299;BME280;37382;45.192;9.790;2023-05-23T11:24:15;100832.53;;;27.35;99.70
51299;BME280;37382;45.192;9.790;2023-05-23T11:26:57;100843.28;;;26.95;100.00
51299;BME280;37382;45.192;9.790;2023-05-23T11:29:30;100842.47;;;26.94;99.57
51299;BME280;37382;45.192;9.790;2023-05-23T11:31:58;100838.53;;;27.84;95.82
51299;BME280;37382;45.192;9.790;2023-05-23T11:34:25;100830.66;;;27.72;88.78
51299;BME280;37382;45.192;9.790;2023-05-23T11:36:54;100828.13;;;28.12;86.29
51299;BME280;37382;45.192;9.790;2023-05-23T11:39:22;100828.25;;;27.93;82.50
51299;BME280;37382;45.192;9.790;2023-05-23T11:42:00;100821.84;;;27.79;86.97
51299;BME280;37382;45.192;9.790;2023-05-23T11:44:29;100826.22;;;27.57;88.69
51299;BME280;37382;45.192;9.790;2023-05-23T11:47:00;100829.09;;;27.80;85.13
51299;BME280;37382;45.192;9.790;2023-05-23T11:49:35;100820.00;;;28.38;92.86
51299;BME280;37382;45.192;9.790;2023-05-23T11:52:06;100820.16;;;28.19;87.79
51299;BME280;37382;45.192;9.790;2023-05-23T11:54:34;100812.63;;;28.06;85.67
51299;BME280;37382;45.192;9.790;2023-05-23T11:57:02;100801.34;;;28.56;89.01
51299;BME280;37382;45.192;9.790;2023-05-23T11:59:30;100800.31;;;28.66;86.43
51299;BME280;37382;45.192;9.790;2023-05-23T12:01:58;100809.63;;;28.02;87.02
51299;BME280;37382;45.192;9.790;2023-05-23T12:04:26;100802.84;;;27.67;82.51
51299;BME280;37382;45.192;9.790;2023-05-23T12:06:53;100807.81;;;27.56;80.62
51299;BME280;37382;45.192;9.790;2023-05-23T12:09:21;100794.75;;;27.79;80.58
51299;BME280;37382;45.192;9.790;2023-05-23T12:11:49;100800.88;;;28.18;79.65
51299;BME280;37382;45.192;9.790;2023-05-23T12:14:17;100787.88;;;28.36;76.61
51299;BME280;37382;45.192;9.790;2023-05-23T12:16:45;100784.50;;;29.24;75.20
51299;BME280;37382;45.192;9.790;2023-05-23T12:19:15;100782.28;;;29.13;71.22
51299;BME280;37382;45.192;9.790;2023-05-23T12:21:45;100794.13;;;28.78;70.46
51299;BME280;37382;45.192;9.790;2023-05-23T12:27:05;100785.19;;;28.67;70.06
51299;BME280;37382;45.192;9.790;2023-05-23T12:29:35;100778.09;;;29.33;66.17
51299;BME280;37382;45.192;9.790;2023-05-23T12:32:05;100773.38;;;29.42;67.48
51299;BME280;37382;45.192;9.790;2023-05-23T12:34:40;100763.09;;;30.04;65.04
51299;BME280;37382;45.192;9.790;2023-05-23T12:37:12;100770.06;;;30.15;64.97
51299;BME280;37382;45.192;9.790;2023-05-23T12:39:43;100764.25;;;29.85;64.00
51299;BME280;37382;45.192;9.790;2023-05-23T12:42:12;100754.38;;;29.88;65.53
51299;BME280;37382;45.192;9.790;2023-05-23T12:44:42;100754.03;;;30.50;62.18
51299;BME280;37382;45.192;9.790;2023-05-23T12:47:10;100761.53;;;29.62;59.03
51299;BME280;37382;45.192;9.790;2023-05-23T12:49:39;100748.03;;;30.69;61.19
51299;BME280;37382;45.192;9.790;2023-05-23T12:52:06;100749.09;;;30.47;58.50
51299;BME280;37382;45.192;9.790;2023-05-23T12:54:34;100759.25;;;29.73;54.90
51299;BME280;37382;45.192;9.790;2023-05-23T12:57:01;100747.53;;;30.76;53.69
51299;BME280;37382;45.192;9.790;2023-05-23T12:59:29;100744.09;;;31.48;56.97
51299;BME280;37382;45.192;9.790;2023-05-23T13:01:57;100745.94;;;30.58;50.74
51299;BME280;37382;45.192;9.790;2023-05-23T13:04:26;100741.56;;;31.34;47.93
51299;BME280;37382;45.192;9.790;2023-05-23T13:06:57;100739.63;;;31.98;51.62
51299;BME280;37382;45.192;9.790;2023-05-23T13:09:26;100742.44;;;31.47;50.33
51299;BME280;37382;45.192;9.790;2023-05-23T13:11:54;100740.13;;;31.19;50.68